createdAt,value
2023-11-15T00:01:39.956Z,13.30
2023-11-15T00:04:07.698Z,13.39
2023-11-15T00:06:35.477Z,13.46
2023-11-15T00:09:03.198Z,13.38
2023-11-15T00:11:32.353Z,13.30
2023-11-15T00:14:00.061Z,13.35
2023-11-15T00:16:27.802Z,13.33
2023-11-15T00:18:55.545Z,13.29
2023-11-15T00:21:23.508Z,13.19
2023-11-15T00:23:51.349Z,13.16
2023-11-15T00:26:19.167Z,13.07
2023-11-15T00:28:48.220Z,13.13
2023-11-15T00:31:15.910Z,13.11
2023-11-15T00:33:43.631Z,13.09
2023-11-15T00:36:11.447Z,13.09
2023-11-15T00:38:39.618Z,13.26
2023-11-15T00:41:07.329Z,13.35
2023-11-15T00:43:35.018Z,13.51
2023-11-15T00:46:04.879Z,13.45
2023-11-15T00:48:32.623Z,13.48
2023-11-15T00:51:00.379Z,13.41
2023-11-15T00:53:28.119Z,13.49
2023-11-15T00:55:55.857Z,13.43
2023-11-15T00:58:23.527Z,13.44
2023-11-15T01:00:51.176Z,13.40
2023-11-15T01:03:20.341Z,13.62
2023-11-15T01:05:48.092Z,13.56
2023-11-15T01:08:15.777Z,13.66
2023-11-15T01:10:43.613Z,13.72
2023-11-15T01:13:11.344Z,13.53
2023-11-15T01:15:39.061Z,13.11
2023-11-15T01:18:06.822Z,13.20
2023-11-15T01:20:36.476Z,13.32
2023-11-15T01:23:04.968Z,13.31
2023-11-15T01:25:32.743Z,13.42
2023-11-15T01:28:00.809Z,13.36
2023-11-15T01:30:28.985Z,13.30
2023-11-15T01:32:56.804Z,13.34
2023-11-15T01:35:24.655Z,13.31
2023-11-15T01:37:53.717Z,13.27
2023-11-15T01:40:21.749Z,13.26
2023-11-15T01:42:50.687Z,13.28
2023-11-15T01:45:18.499Z,13.22
2023-11-15T01:47:46.328Z,13.13
2023-11-15T01:50:14.405Z,13.01
2023-11-15T01:52:45.060Z,13.08
2023-11-15T01:55:17.662Z,13.10
2023-11-15T01:57:47.615Z,13.15
2023-11-15T02:00:16.603Z,13.17
2023-11-15T02:02:44.788Z,12.97
2023-11-15T02:05:12.555Z,13.02
2023-11-15T02:07:43.752Z,13.33
2023-11-15T02:10:11.872Z,13.09
2023-11-15T02:12:40.999Z,13.01
2023-11-15T02:15:09.520Z,12.96
2023-11-15T02:17:37.343Z,13.15
2023-11-15T02:20:06.259Z,13.13
2023-11-15T02:22:35.342Z,13.34
2023-11-15T02:25:05.332Z,13.01
2023-11-15T02:27:32.991Z,12.97
2023-11-15T02:30:00.815Z,12.85
2023-11-15T02:32:28.572Z,12.79
2023-11-15T02:34:56.341Z,12.93
2023-11-15T02:37:24.040Z,12.89
2023-11-15T02:39:51.736Z,12.99
2023-11-15T02:42:20.774Z,12.94
2023-11-15T02:44:48.469Z,12.94
2023-11-15T02:47:16.170Z,12.92
2023-11-15T02:49:43.810Z,13.01
2023-11-15T02:52:11.549Z,12.92
2023-11-15T02:54:39.249Z,12.82
2023-11-15T02:57:06.946Z,12.89
2023-11-15T02:59:36.008Z,13.00
2023-11-15T03:02:03.940Z,12.59
2023-11-15T03:04:31.739Z,12.60
2023-11-15T03:06:59.468Z,12.38
2023-11-15T03:09:27.154Z,12.43
2023-11-15T03:11:54.902Z,12.32
2023-11-15T03:14:22.697Z,12.19
2023-11-15T03:16:51.813Z,12.31
2023-11-15T03:19:19.547Z,12.39
2023-11-15T03:21:47.253Z,12.29
2023-11-15T03:24:14.944Z,12.20
2023-11-15T03:26:42.682Z,12.11
2023-11-15T03:29:10.385Z,12.22
2023-11-15T03:31:38.042Z,12.05
2023-11-15T03:34:07.208Z,12.17
2023-11-15T03:36:34.932Z,12.13
2023-11-15T03:39:02.659Z,12.18
2023-11-15T03:41:30.699Z,12.06
2023-11-15T03:43:58.384Z,12.04
2023-11-15T03:46:26.052Z,12.20
2023-11-15T03:48:54.011Z,12.26
2023-11-15T03:51:23.031Z,12.29
2023-11-15T03:53:50.785Z,12.36
2023-11-15T03:56:18.482Z,12.38
2023-11-15T03:58:46.187Z,12.40
2023-11-15T04:01:13.910Z,12.38
2023-11-15T04:03:41.803Z,12.50
2023-11-15T04:06:09.745Z,12.51
2023-11-15T04:08:38.786Z,12.28
2023-11-15T04:11:06.636Z,12.28
2023-11-15T04:13:35.391Z,12.29
2023-11-15T04:16:03.651Z,12.32
2023-11-15T04:18:31.424Z,12.22
2023-11-15T04:20:59.171Z,12.38
2023-11-15T04:23:27.165Z,12.29
2023-11-15T04:25:56.204Z,12.48
2023-11-15T04:28:23.863Z,12.58
2023-11-15T04:30:51.617Z,12.72
2023-11-15T04:33:19.423Z,12.58
2023-11-15T04:35:47.153Z,12.56
2023-11-15T04:38:14.847Z,12.60
2023-11-15T04:40:42.556Z,12.57
2023-11-15T04:43:11.565Z,12.58
2023-11-15T04:45:39.223Z,12.61
2023-11-15T04:48:06.919Z,12.42
2023-11-15T04:50:34.699Z,12.42
2023-11-15T04:53:02.481Z,12.32
2023-11-15T04:55:30.183Z,12.11
2023-11-15T04:57:57.881Z,11.94
2023-11-15T05:00:27.014Z,12.05
2023-11-15T05:02:54.848Z,12.04
2023-11-15T05:05:22.606Z,12.16
2023-11-15T05:07:50.293Z,12.23
2023-11-15T05:10:18.085Z,12.14
2023-11-15T05:12:45.759Z,12.37
2023-11-15T05:15:13.425Z,12.51
2023-11-15T05:17:42.439Z,12.48
2023-11-15T05:20:11.371Z,12.39
2023-11-15T05:22:39.255Z,12.42
2023-11-15T05:25:07.398Z,12.47
2023-11-15T05:27:35.133Z,12.53
2023-11-15T05:30:03.939Z,12.35
2023-11-15T05:32:31.726Z,12.41
2023-11-15T05:35:00.811Z,12.39
2023-11-15T05:37:28.641Z,12.30
2023-11-15T05:39:56.290Z,12.25
2023-11-15T05:42:23.973Z,12.18
2023-11-15T05:44:51.714Z,12.16
2023-11-15T05:47:19.395Z,12.06
2023-11-15T05:49:47.142Z,12.08
2023-11-15T05:52:16.167Z,12.20
2023-11-15T05:54:43.825Z,12.37
2023-11-15T05:57:11.463Z,12.28
2023-11-15T05:59:39.170Z,12.35
2023-11-15T06:02:07.019Z,12.42
2023-11-15T06:04:36.213Z,12.41
2023-11-15T06:07:04.308Z,12.40
2023-11-15T06:09:33.356Z,12.40
2023-11-15T06:12:01.012Z,12.18
2023-11-15T06:14:28.757Z,12.34
2023-11-15T06:16:56.450Z,12.50
2023-11-15T06:19:24.156Z,12.55
2023-11-15T06:21:51.885Z,12.46
2023-11-15T06:24:19.599Z,12.56
2023-11-15T06:26:48.648Z,12.45
2023-11-15T06:29:16.392Z,12.56
2023-11-15T06:31:44.042Z,12.32
2023-11-15T06:34:11.902Z,12.34
2023-11-15T06:36:40.948Z,12.39
2023-11-15T06:39:09.921Z,12.35
2023-11-15T06:41:37.663Z,12.33
2023-11-15T06:44:07.410Z,12.20
2023-11-15T06:46:36.094Z,12.31
2023-11-15T06:49:03.793Z,12.26
2023-11-15T06:51:31.461Z,12.22
2023-11-15T06:53:59.111Z,12.20
2023-11-15T06:56:26.755Z,12.34
2023-11-15T06:58:54.399Z,12.31
2023-11-15T07:01:23.496Z,12.24
2023-11-15T07:03:51.331Z,12.21
2023-11-15T07:06:19.110Z,12.22
2023-11-15T07:08:46.811Z,12.10
2023-11-15T07:11:14.556Z,12.25
2023-11-15T07:13:42.227Z,12.05
2023-11-15T07:16:11.669Z,12.10
2023-11-15T07:18:40.849Z,12.12
2023-11-15T07:21:08.699Z,12.15
2023-11-15T07:23:37.566Z,12.05
2023-11-15T07:26:05.788Z,12.08
2023-11-15T07:28:33.584Z,12.06
2023-11-15T07:31:01.334Z,12.30
2023-11-15T07:33:29.183Z,12.32
2023-11-15T07:35:58.283Z,12.51
2023-11-15T07:38:25.955Z,12.48
2023-11-15T07:40:53.602Z,12.49
2023-11-15T07:43:21.245Z,12.67
2023-11-15T07:45:48.970Z,12.91
2023-11-15T07:48:16.806Z,12.97
2023-11-15T07:50:44.504Z,13.12
2023-11-15T07:53:13.726Z,13.56
2023-11-15T07:55:41.389Z,13.13
2023-11-15T07:58:09.405Z,13.03
2023-11-15T08:00:37.087Z,12.82
2023-11-15T08:03:04.976Z,12.64
2023-11-15T08:05:32.736Z,12.95
2023-11-15T08:08:00.488Z,12.58
2023-11-15T08:10:29.540Z,12.56
2023-11-15T08:12:57.284Z,12.57
2023-11-15T08:15:24.968Z,12.12
2023-11-15T08:17:52.803Z,12.36
2023-11-15T08:20:20.861Z,12.64
2023-11-15T08:22:48.533Z,12.56
2023-11-15T08:25:16.256Z,12.79
2023-11-15T08:27:45.288Z,12.80
2023-11-15T08:30:14.062Z,12.99
2023-11-15T08:32:42.181Z,12.98
2023-11-15T08:35:09.899Z,13.39
2023-11-15T08:37:37.798Z,14.76
2023-11-15T08:40:19.301Z,14.89
2023-11-15T08:42:55.617Z,13.85
2023-11-15T08:45:23.870Z,14.33
2023-11-15T08:47:52.432Z,13.94
2023-11-15T08:50:20.356Z,14.44
2023-11-15T08:52:48.036Z,13.77
2023-11-15T08:55:15.941Z,13.59
2023-11-15T08:57:43.683Z,14.41
2023-11-15T09:00:14.765Z,13.82
2023-11-15T09:02:43.538Z,14.12
2023-11-15T09:05:11.631Z,14.00
2023-11-15T09:07:39.447Z,14.02
2023-11-15T09:10:08.216Z,13.48
2023-11-15T09:12:36.288Z,13.26
2023-11-15T09:15:04.924Z,13.13
2023-11-15T09:17:34.106Z,12.85
2023-11-15T09:20:01.846Z,13.09
2023-11-15T09:22:29.490Z,12.91
2023-11-15T09:25:04.050Z,12.72
2023-11-15T09:27:36.859Z,12.96
2023-11-15T09:30:05.674Z,12.90
2023-11-15T09:32:35.137Z,12.97
2023-11-15T09:35:02.872Z,13.03
2023-11-15T09:37:30.540Z,14.06
2023-11-15T09:39:58.206Z,13.71
2023-11-15T09:42:25.847Z,13.39
2023-11-15T09:44:53.845Z,12.87
2023-11-15T09:47:21.784Z,13.25
2023-11-15T09:49:53.257Z,14.34
2023-11-15T09:52:21.019Z,13.85
2023-11-15T09:54:53.256Z,13.58
2023-11-15T09:57:21.345Z,13.59
2023-11-15T09:59:56.851Z,13.51
2023-11-15T10:02:34.007Z,13.55
2023-11-15T10:05:16.886Z,14.07
2023-11-15T10:07:44.782Z,15.12
2023-11-15T10:10:17.001Z,15.44
2023-11-15T10:12:44.799Z,14.01
2023-11-15T10:15:12.662Z,13.62
2023-11-15T10:17:41.796Z,13.33
2023-11-15T10:20:21.576Z,12.98
2023-11-15T10:22:50.061Z,13.03
2023-11-15T10:25:17.739Z,13.01
2023-11-15T10:27:45.431Z,13.02
2023-11-15T10:30:14.704Z,13.48
2023-11-15T10:32:42.548Z,13.63
2023-11-15T10:35:10.300Z,13.27
2023-11-15T10:37:51.240Z,14.98
2023-11-15T10:40:19.305Z,16.03
2023-11-15T10:42:50.078Z,16.25
2023-11-15T10:45:18.477Z,16.17
2023-11-15T10:47:55.850Z,16.91
2023-11-15T10:50:27.750Z,16.54
2023-11-15T10:52:58.320Z,15.58
2023-11-15T10:55:29.747Z,16.40
2023-11-15T10:58:01.532Z,15.45
2023-11-15T11:00:30.519Z,14.71
2023-11-15T11:02:58.874Z,14.74
2023-11-15T11:05:40.220Z,15.05
2023-11-15T11:08:24.172Z,14.39
2023-11-15T11:11:04.991Z,15.42
2023-11-15T11:13:32.782Z,16.18
2023-11-15T11:19:10.341Z,16.31
2023-11-15T11:22:04.369Z,16.86
2023-11-15T11:24:35.658Z,17.11
2023-11-15T11:27:28.720Z,17.43
2023-11-15T11:30:17.920Z,16.67
2023-11-15T11:32:48.848Z,15.63
2023-11-15T11:35:27.712Z,15.43
2023-11-15T11:37:55.524Z,14.94
2023-11-15T11:40:27.409Z,14.90
2023-11-15T11:43:13.306Z,14.64
2023-11-15T11:45:40.977Z,14.92
2023-11-15T11:48:17.754Z,14.65
2023-11-15T11:51:00.968Z,14.55
2023-11-15T11:53:28.766Z,14.91
2023-11-15T11:55:57.866Z,15.27
2023-11-15T11:58:28.390Z,15.63
2023-11-15T12:01:04.177Z,15.43
2023-11-15T12:03:33.282Z,15.54
2023-11-15T12:06:07.851Z,15.86
2023-11-15T12:08:37.598Z,15.34
2023-11-15T12:11:07.984Z,14.88
2023-11-15T12:13:43.482Z,14.68
2023-11-15T12:16:22.040Z,14.55
2023-11-15T12:19:00.220Z,14.90
2023-11-15T12:21:28.555Z,14.99
2023-11-15T12:23:57.242Z,14.77
2023-11-15T12:26:27.667Z,15.01
2023-11-15T12:28:55.352Z,15.39
2023-11-15T12:31:23.950Z,16.45
2023-11-15T12:33:52.044Z,16.42
2023-11-15T12:36:21.198Z,16.28
2023-11-15T12:38:55.962Z,16.67
2023-11-15T12:41:26.253Z,16.97
2023-11-15T12:44:02.478Z,16.16
2023-11-15T12:46:30.479Z,15.89
2023-11-15T12:48:58.265Z,15.66
2023-11-15T12:51:25.962Z,15.34
2023-11-15T12:53:54.242Z,15.51
2023-11-15T12:56:22.136Z,15.76
2023-11-15T12:58:49.839Z,15.69
2023-11-15T13:01:20.146Z,15.42
2023-11-15T13:03:56.412Z,15.50
2023-11-15T13:06:27.143Z,15.84
2023-11-15T13:08:58.183Z,15.91
2023-11-15T13:11:26.164Z,15.92
2023-11-15T13:13:54.512Z,15.38
2023-11-15T13:16:24.470Z,15.19
2023-11-15T13:18:52.346Z,14.70
2023-11-15T13:21:21.732Z,14.44
2023-11-15T13:23:50.421Z,14.46
2023-11-15T13:26:18.444Z,14.67
2023-11-15T13:28:47.952Z,14.62
2023-11-15T13:31:18.954Z,14.74
2023-11-15T13:33:49.190Z,14.88
2023-11-15T13:36:20.883Z,14.75
2023-11-15T13:38:48.851Z,14.53
2023-11-15T13:41:16.932Z,15.59
2023-11-15T13:43:44.723Z,15.69
2023-11-15T13:46:12.428Z,15.35
2023-11-15T13:48:40.228Z,15.29
2023-11-15T13:51:09.383Z,14.67
2023-11-15T13:53:37.270Z,14.25
2023-11-15T13:56:06.263Z,14.29
2023-11-15T13:58:34.056Z,13.95
2023-11-15T14:01:01.777Z,13.76
2023-11-15T14:03:29.836Z,13.92
2023-11-15T14:05:58.885Z,14.20
2023-11-15T14:08:29.241Z,14.30
2023-11-15T14:10:56.922Z,13.89
2023-11-15T14:13:24.686Z,13.59
2023-11-15T14:15:52.423Z,13.75
2023-11-15T14:18:20.195Z,14.16
2023-11-15T14:20:47.924Z,14.12
2023-11-15T14:23:15.589Z,14.41
2023-11-15T14:25:44.650Z,14.44
2023-11-15T14:28:12.304Z,14.58
2023-11-15T14:30:39.968Z,14.81
2023-11-15T14:33:09.877Z,15.19
2023-11-15T14:35:38.899Z,15.23
2023-11-15T14:38:06.580Z,15.42
2023-11-15T14:40:34.436Z,15.42
2023-11-15T14:43:03.435Z,15.40
2023-11-15T14:45:31.156Z,15.41
2023-11-15T14:47:58.904Z,15.20
2023-11-15T14:50:26.610Z,15.23
2023-11-15T14:52:54.379Z,14.87
2023-11-15T14:55:22.382Z,15.00
2023-11-15T14:57:52.511Z,15.15
2023-11-15T15:00:21.947Z,15.47
2023-11-15T15:02:50.065Z,15.51
2023-11-15T15:05:18.159Z,15.41
2023-11-15T15:07:45.870Z,15.43
2023-11-15T15:10:13.730Z,14.88
2023-11-15T15:12:41.642Z,14.94
2023-11-15T15:15:10.548Z,15.19
2023-11-15T15:17:40.493Z,15.12
2023-11-15T15:20:09.134Z,15.24
2023-11-15T15:22:36.987Z,15.50
2023-11-15T15:25:05.591Z,15.62
2023-11-15T15:27:33.271Z,15.77
2023-11-15T15:30:01.154Z,15.78
2023-11-15T15:32:29.166Z,15.41
2023-11-15T15:34:58.302Z,15.35
2023-11-15T15:37:26.083Z,15.47
2023-11-15T15:39:53.763Z,15.44
2023-11-15T15:42:21.490Z,15.35
2023-11-15T15:44:49.336Z,15.10
2023-11-15T15:47:17.083Z,15.01
2023-11-15T15:49:44.796Z,15.05
2023-11-15T15:52:14.273Z,15.10
2023-11-15T15:54:42.035Z,14.68
2023-11-15T15:57:09.938Z,14.95
2023-11-15T15:59:37.792Z,14.96
2023-11-15T16:02:06.430Z,14.87
2023-11-15T16:04:34.477Z,14.88
2023-11-15T16:07:02.171Z,14.63
2023-11-15T16:09:31.250Z,14.78
2023-11-15T16:11:58.954Z,14.46
2023-11-15T16:14:26.655Z,14.21
2023-11-15T16:16:54.360Z,14.06
2023-11-15T16:19:22.128Z,14.60
2023-11-15T16:21:49.797Z,14.65
2023-11-15T16:24:17.580Z,14.52
2023-11-15T16:26:46.671Z,14.69
2023-11-15T16:29:14.569Z,14.40
2023-11-15T16:31:42.695Z,14.22
2023-11-15T16:34:10.400Z,14.45
2023-11-15T16:36:38.178Z,13.89
2023-11-15T16:39:06.086Z,13.82
2023-11-15T16:41:47.676Z,13.56
2023-11-15T16:44:15.914Z,13.65
2023-11-15T16:46:44.171Z,14.26
2023-11-15T16:49:12.031Z,14.38
2023-11-15T16:51:39.756Z,14.20
2023-11-15T16:54:08.327Z,13.81
2023-11-15T16:56:36.041Z,14.06
2023-11-15T16:59:05.295Z,14.24
2023-11-15T17:01:33.299Z,14.17
2023-11-15T17:04:01.119Z,14.01
2023-11-15T17:06:28.881Z,13.70
2023-11-15T17:08:56.589Z,14.18
2023-11-15T17:11:24.332Z,14.05
2023-11-15T17:13:53.515Z,13.87
2023-11-15T17:16:23.731Z,14.04
2023-11-15T17:18:51.917Z,13.73
2023-11-15T17:21:20.072Z,13.49
2023-11-15T17:23:48.139Z,13.77
2023-11-15T17:26:16.120Z,13.54
2023-11-15T17:28:44.883Z,13.22
2023-11-15T17:31:13.269Z,12.85
2023-11-15T17:33:42.697Z,13.29
2023-11-15T17:36:10.704Z,13.01
2023-11-15T17:38:38.438Z,13.37
2023-11-15T17:41:06.655Z,13.46
2023-11-15T17:43:34.371Z,13.68
2023-11-15T17:46:02.104Z,13.52
2023-11-15T17:48:30.068Z,13.33
2023-11-15T17:50:59.162Z,13.37
2023-11-15T17:53:26.859Z,13.06
2023-11-15T17:55:54.488Z,12.86
2023-11-15T17:58:22.175Z,12.61
2023-11-15T18:00:49.950Z,12.74
2023-11-15T18:03:17.730Z,12.57
2023-11-15T18:05:45.423Z,12.51
2023-11-15T18:08:17.710Z,12.33
2023-11-15T18:10:45.370Z,12.37
2023-11-15T18:13:13.172Z,12.57
2023-11-15T18:15:40.816Z,12.74
2023-11-15T18:18:08.589Z,12.89
2023-11-15T18:20:36.272Z,12.88
2023-11-15T18:23:03.979Z,12.91
2023-11-15T18:25:33.033Z,12.96
2023-11-15T18:28:00.694Z,13.05
2023-11-15T18:30:28.446Z,13.10
2023-11-15T18:32:56.347Z,12.98
2023-11-15T18:35:24.099Z,12.96
2023-11-15T18:37:52.268Z,13.07
2023-11-15T18:40:20.682Z,13.12
2023-11-15T18:42:50.028Z,13.25
2023-11-15T18:45:18.051Z,13.24
2023-11-15T18:47:45.796Z,12.88
2023-11-15T18:50:13.782Z,13.02
2023-11-15T18:52:42.998Z,12.89
2023-11-15T18:55:12.013Z,13.05
2023-11-15T18:57:39.741Z,13.14
2023-11-15T19:00:10.282Z,13.23
2023-11-15T19:02:38.358Z,13.24
2023-11-15T19:05:07.019Z,13.10
2023-11-15T19:07:34.684Z,13.30
2023-11-15T19:10:02.372Z,13.24
2023-11-15T19:12:30.076Z,13.07
2023-11-15T19:14:57.780Z,12.97
2023-11-15T19:17:26.876Z,12.89
2023-11-15T19:19:54.566Z,13.07
2023-11-15T19:22:22.214Z,13.26
2023-11-15T19:24:49.892Z,13.06
2023-11-15T19:27:17.602Z,12.53
2023-11-15T19:29:45.310Z,12.20
2023-11-15T19:32:13.003Z,12.04
2023-11-15T19:34:42.046Z,12.13
2023-11-15T19:37:09.789Z,12.04
2023-11-15T19:39:37.624Z,12.03
2023-11-15T19:42:05.586Z,12.05
2023-11-15T19:44:33.319Z,11.90
2023-11-15T19:47:01.792Z,11.97
2023-11-15T19:49:29.462Z,12.05
2023-11-15T19:52:07.814Z,12.23
2023-11-15T19:54:35.505Z,12.49
2023-11-15T19:57:03.450Z,12.64
2023-11-15T19:59:31.190Z,13.17
2023-11-15T20:01:59.067Z,13.16
2023-11-15T20:04:27.090Z,12.70
2023-11-15T20:06:54.814Z,12.54
2023-11-15T20:09:23.880Z,12.67
2023-11-15T20:11:51.582Z,12.59
2023-11-15T20:14:19.310Z,12.57
2023-11-15T20:16:47.088Z,12.79
2023-11-15T20:19:14.795Z,12.43
2023-11-15T20:21:42.500Z,12.02
2023-11-15T20:24:10.496Z,11.96
2023-11-15T20:26:39.573Z,11.84
2023-11-15T20:29:07.246Z,11.82
2023-11-15T20:31:35.565Z,11.79
2023-11-15T20:34:03.270Z,11.71
2023-11-15T20:36:31.081Z,11.61
2023-11-15T20:39:03.029Z,11.47
2023-11-15T20:41:35.519Z,11.51
2023-11-15T20:44:04.966Z,11.38
2023-11-15T20:46:32.634Z,11.51
2023-11-15T20:49:00.447Z,11.50
2023-11-15T20:51:28.222Z,11.63
2023-11-15T20:53:55.993Z,12.13
2023-11-15T20:56:23.683Z,12.70
2023-11-15T20:58:51.357Z,12.52
2023-11-15T21:01:20.440Z,12.18
2023-11-15T21:03:48.349Z,12.21
2023-11-15T21:06:16.780Z,11.94
2023-11-15T21:08:44.443Z,12.10
2023-11-15T21:11:12.107Z,12.16
2023-11-15T21:13:39.762Z,12.38
2023-11-15T21:16:09.386Z,12.94
2023-11-15T21:18:39.418Z,12.86
2023-11-15T21:21:09.310Z,13.04
2023-11-15T21:23:37.413Z,13.01
2023-11-15T21:26:05.364Z,12.92
2023-11-15T21:28:33.076Z,12.92
2023-11-15T21:31:00.764Z,12.39
2023-11-15T21:33:28.535Z,12.03
2023-11-15T21:35:57.654Z,11.80
2023-11-15T21:38:25.553Z,11.68
2023-11-15T21:40:53.288Z,11.51
2023-11-15T21:43:20.971Z,11.49
2023-11-15T21:45:48.984Z,12.06
2023-11-15T21:48:16.822Z,12.71
2023-11-15T21:50:44.648Z,12.79
2023-11-15T21:53:13.680Z,12.44
2023-11-15T21:55:41.529Z,12.96
2023-11-15T21:58:09.402Z,12.58
2023-11-15T22:00:37.571Z,12.55
2023-11-15T22:03:05.724Z,13.05
2023-11-15T22:05:33.505Z,12.82
2023-11-15T22:08:01.214Z,12.38
2023-11-15T22:10:30.258Z,12.81
2023-11-15T22:12:57.938Z,12.33
2023-11-15T22:15:25.627Z,12.64
2023-11-15T22:17:53.454Z,12.11
2023-11-15T22:20:21.421Z,12.40
2023-11-15T22:22:49.097Z,12.78
2023-11-15T22:25:16.915Z,12.95
2023-11-15T22:27:45.973Z,13.13
2023-11-15T22:30:14.221Z,12.74
2023-11-15T22:32:41.928Z,13.02
2023-11-15T22:35:09.637Z,13.21
2023-11-15T22:37:37.334Z,13.01
2023-11-15T22:40:06.049Z,13.05
2023-11-15T22:42:33.735Z,12.61
2023-11-15T22:45:02.924Z,12.27
2023-11-15T22:47:30.633Z,12.31
2023-11-15T22:49:58.334Z,12.80
2023-11-15T22:52:26.016Z,12.57
2023-11-15T22:54:53.722Z,12.59
2023-11-15T22:57:21.491Z,12.51
2023-11-15T22:59:51.807Z,12.86
2023-11-15T23:02:21.763Z,12.92
2023-11-15T23:04:49.926Z,12.68
2023-11-15T23:07:17.810Z,12.95
2023-11-15T23:09:45.487Z,13.11
2023-11-15T23:12:13.180Z,13.10
2023-11-15T23:14:40.913Z,13.13
2023-11-15T23:17:08.679Z,12.99
2023-11-15T23:19:37.689Z,13.09
2023-11-15T23:22:05.391Z,13.21
2023-11-15T23:24:33.104Z,13.26
2023-11-15T23:27:01.186Z,13.39
2023-11-15T23:29:30.100Z,13.13
2023-11-15T23:31:58.100Z,13.15
2023-11-15T23:34:25.861Z,12.97
2023-11-15T23:36:54.855Z,12.87
2023-11-15T23:39:22.555Z,12.98
2023-11-15T23:41:50.332Z,13.03
2023-11-15T23:44:18.036Z,12.95
2023-11-15T23:46:46.322Z,12.84
2023-11-15T23:49:14.931Z,13.03
2023-11-15T23:51:42.624Z,12.84
2023-11-15T23:54:11.719Z,12.71
2023-11-15T23:56:41.627Z,12.19
2023-11-15T23:59:09.689Z,12.07
